Osage River (Missouri), Taberville (06918250)

StateMissouriLatestPoor (890 cfs)
RiverOsage RiverRatingObservedEstimated
Updated2021-01-24 8:45 (40 minutes ago)Flood - The river is flooding. Obstacles can be treacherous or deadly. The river should be avoided at this stage for casual trips and definitely for the inexperienced. Trips should be attempted only with protective gear and equipment.Flood(none)38403
Discharge890 cfs (median: 426 cfs)High - The river is high and potentially dangerous, especially for the young and / or inexperienced. Normal stream obstacles are sometimes difficult to navigate. Extended distances can be attempted, but canoe travel may not be advisable.High(none)7197
Height10.96 feetGood - Conditions are ideal for a canoe or kayak. Boats typically will drag on fewer than one-quarter of riffles, if at all, and portages are unnecessary or rare. Normal float lengths can be attempted without a problem.Good(none)4305
TrendSteady (rising over 24 hours)Low - River is low but can still be floated. Some riffles are okay but most come with significant dragging and might need a portage. Float lengths should be reduced to accommodate low flow, dragging, and portages.Low(none)1188
USGSExternal icon USGS Site (External icon Google Maps)Poor - River is too low to float comfortably. Most or all riffles will drag or must be portaged and some obstacles (such as slick shelf rock) cause undue problems. Avoid the river at this stage for casual paddling trips.Poor(none)50

Trending Data

Plot Image

Trips for Osage River (Missouri), Taberville (06918250)

DateStartEndDistanceConditionDischargeHeightFishingDetails

A total of 0 rows are displayed.

Condition Descriptions

Fishing Conditions

Fish Species

Notes

Classic Trip List

The classic River Trips application is still available for use. It is updated with the new system using a data retrofit. It is no longer maintained. The original River Trips application is no longer updated (as of 1 Dec 2016) but can be checked for errors or for the condition of the data before it was converted to the new system.

Gauge Data Table

ObservationHeightDischargeMaximum
Discharge
Minimum
Discharge
Mean
Discharge
P05P10P20P25P50
(Median)
P75P80P90P95
2021-01-24 08:45 10.96 890 8490 (2020) 50 (2012) 2690 50 68 157 426 5980 6870 8490
2021-01-24 07:45 10.96 890 8490 (2020) 50 (2012) 2690 50 68 157 426 5980 6870 8490
2021-01-24 06:45 10.94 877 8490 (2020) 50 (2012) 2690 50 68 157 426 5980 6870 8490
2021-01-24 05:45 10.96 890 8490 (2020) 50 (2012) 2690 50 68 157 426 5980 6870 8490
2021-01-24 04:45 10.92 865 8490 (2020) 50 (2012) 2690 50 68 157 426 5980 6870 8490
2021-01-24 03:45 10.89 848 8490 (2020) 50 (2012) 2690 50 68 157 426 5980 6870 8490
2021-01-24 02:45 10.89 848 8490 (2020) 50 (2012) 2690 50 68 157 426 5980 6870 8490
2021-01-24 01:45 10.88 842 8490 (2020) 50 (2012) 2690 50 68 157 426 5980 6870 8490
2021-01-24 00:45 10.84 818 8490 (2020) 50 (2012) 2690 50 68 157 426 5980 6870 8490
2021-01-23 23:45 10.86 830 10400 (2020) 50 (2012) 2810 50 55 173 399 5280 6130 10400
2021-01-23 22:45 10.86 830 10400 (2020) 50 (2012) 2810 50 55 173 399 5280 6130 10400
2021-01-23 21:45 10.84 818 10400 (2020) 50 (2012) 2810 50 55 173 399 5280 6130 10400
2021-01-23 20:45 10.84 818 10400 (2020) 50 (2012) 2810 50 55 173 399 5280 6130 10400
2021-01-23 19:45 10.83 813 10400 (2020) 50 (2012) 2810 50 55 173 399 5280 6130 10400
2021-01-23 18:45 10.84 818 10400 (2020) 50 (2012) 2810 50 55 173 399 5280 6130 10400
2021-01-23 17:45 10.83 813 10400 (2020) 50 (2012) 2810 50 55 173 399 5280 6130 10400
2021-01-23 16:45 10.86 830 10400 (2020) 50 (2012) 2810 50 55 173 399 5280 6130 10400
2021-01-23 15:45 10.87 836 10400 (2020) 50 (2012) 2810 50 55 173 399 5280 6130 10400
2021-01-23 14:45 10.89 848 10400 (2020) 50 (2012) 2810 50 55 173 399 5280 6130 10400
2021-01-23 13:45 10.89 848 10400 (2020) 50 (2012) 2810 50 55 173 399 5280 6130 10400
2021-01-23 12:45 10.88 842 10400 (2020) 50 (2012) 2810 50 55 173 399 5280 6130 10400
2021-01-23 11:45 10.85 824 10400 (2020) 50 (2012) 2810 50 55 173 399 5280 6130 10400
2021-01-23 10:45 10.84 818 10400 (2020) 50 (2012) 2810 50 55 173 399 5280 6130 10400
2021-01-23 09:45 10.82 807 10400 (2020) 50 (2012) 2810 50 55 173 399 5280 6130 10400
2021-01-23 08:45 10.85 824 10400 (2020) 50 (2012) 2810 50 55 173 399 5280 6130 10400
2021-01-23 07:45 10.93 871 10400 (2020) 50 (2012) 2810 50 55 173 399 5280 6130 10400
2021-01-23 06:45 10.99 908 10400 (2020) 50 (2012) 2810 50 55 173 399 5280 6130 10400
2021-01-23 05:45 11.04 939 10400 (2020) 50 (2012) 2810 50 55 173 399 5280 6130 10400
2021-01-23 04:45 11.01 920 10400 (2020) 50 (2012) 2810 50 55 173 399 5280 6130 10400
2021-01-23 03:45 10.95 883 10400 (2020) 50 (2012) 2810 50 55 173 399 5280 6130 10400
2021-01-23 02:45 10.88 842 10400 (2020) 50 (2012) 2810 50 55 173 399 5280 6130 10400
2021-01-23 01:45 10.84 818 10400 (2020) 50 (2012) 2810 50 55 173 399 5280 6130 10400
2021-01-23 00:45 10.88 842 10400 (2020) 50 (2012) 2810 50 55 173 399 5280 6130 10400
2021-01-22 23:45 10.97 896 14200 (2020) 50 (2013) 3500 50 126 223 510 6660 10100 14200
2021-01-22 22:45 11.08 965 14200 (2020) 50 (2013) 3500 50 126 223 510 6660 10100 14200
2021-01-22 21:45 11.16 1020 14200 (2020) 50 (2013) 3500 50 126 223 510 6660 10100 14200
2021-01-22 20:45 11.19 1040 14200 (2020) 50 (2013) 3500 50 126 223 510 6660 10100 14200
2021-01-22 19:45 11.15 1010 14200 (2020) 50 (2013) 3500 50 126 223 510 6660 10100 14200
2021-01-22 18:45 11.07 958 14200 (2020) 50 (2013) 3500 50 126 223 510 6660 10100 14200
2021-01-22 17:45 11.00 914 14200 (2020) 50 (2013) 3500 50 126 223 510 6660 10100 14200
2021-01-22 16:45 10.96 890 14200 (2020) 50 (2013) 3500 50 126 223 510 6660 10100 14200
2021-01-22 15:45 10.96 890 14200 (2020) 50 (2013) 3500 50 126 223 510 6660 10100 14200
2021-01-22 14:45 11.02 927 14200 (2020) 50 (2013) 3500 50 126 223 510 6660 10100 14200
2021-01-22 13:45 11.08 965 14200 (2020) 50 (2013) 3500 50 126 223 510 6660 10100 14200
2021-01-22 12:45 11.12 990 14200 (2020) 50 (2013) 3500 50 126 223 510 6660 10100 14200
2021-01-22 11:45 11.23 1060 14200 (2020) 50 (2013) 3500 50 126 223 510 6660 10100 14200
2021-01-22 10:45 11.25 1080 14200 (2020) 50 (2013) 3500 50 126 223 510 6660 10100 14200
2021-01-22 09:45 11.27 1090 14200 (2020) 50 (2013) 3500 50 126 223 510 6660 10100 14200
2021-01-22 08:45 11.32 1130 14200 (2020) 50 (2013) 3500 50 126 223 510 6660 10100 14200
2021-01-22 07:45 11.39 1180 14200 (2020) 50 (2013) 3500 50 126 223 510 6660 10100 14200
2021-01-22 06:45 11.45 1220 14200 (2020) 50 (2013) 3500 50 126 223 510 6660 10100 14200
2021-01-22 05:45 11.46 1230 14200 (2020) 50 (2013) 3500 50 126 223 510 6660 10100 14200
2021-01-22 04:45 11.42 1200 14200 (2020) 50 (2013) 3500 50 126 223 510 6660 10100 14200
2021-01-22 03:45 11.33 1130 14200 (2020) 50 (2013) 3500 50 126 223 510 6660 10100 14200
2021-01-22 02:45 11.24 1070 14200 (2020) 50 (2013) 3500 50 126 223 510 6660 10100 14200
2021-01-22 01:45 11.20 1040 14200 (2020) 50 (2013) 3500 50 126 223 510 6660 10100 14200
2021-01-22 00:45 11.22 1060 14200 (2020) 50 (2013) 3500 50 126 223 510 6660 10100 14200
2021-01-21 23:45 11.29 1110 16700 (2020) 50 (2013) 4280 50 128 221 578 8910 14500 16700
2021-01-21 22:45 11.41 1190 16700 (2020) 50 (2013) 4280 50 128 221 578 8910 14500 16700
2021-01-21 21:45 11.49 1250 16700 (2020) 50 (2013) 4280 50 128 221 578 8910 14500 16700
2021-01-21 20:45 11.53 1280 16700 (2020) 50 (2013) 4280 50 128 221 578 8910 14500 16700
2021-01-21 19:45 11.54 1290 16700 (2020) 50 (2013) 4280 50 128 221 578 8910 14500 16700
2021-01-21 18:45 11.49 1250 16700 (2020) 50 (2013) 4280 50 128 221 578 8910 14500 16700
2021-01-21 17:45 11.39 1180 16700 (2020) 50 (2013) 4280 50 128 221 578 8910 14500 16700
2021-01-21 16:45 11.30 1110 16700 (2020) 50 (2013) 4280 50 128 221 578 8910 14500 16700
2021-01-21 15:45 11.24 1070 16700 (2020) 50 (2013) 4280 50 128 221 578 8910 14500 16700
2021-01-21 14:45 11.26 1080 16700 (2020) 50 (2013) 4280 50 128 221 578 8910 14500 16700
2021-01-21 13:45 11.33 1130 16700 (2020) 50 (2013) 4280 50 128 221 578 8910 14500 16700
2021-01-21 12:45 11.41 1190 16700 (2020) 50 (2013) 4280 50 128 221 578 8910 14500 16700
2021-01-21 11:45 11.50 1260 16700 (2020) 50 (2013) 4280 50 128 221 578 8910 14500 16700
2021-01-21 10:45 11.58 1320 16700 (2020) 50 (2013) 4280 50 128 221 578 8910 14500 16700
2021-01-21 09:45 11.63 1360 16700 (2020) 50 (2013) 4280 50 128 221 578 8910 14500 16700
2021-01-21 08:45 11.66 1380 16700 (2020) 50 (2013) 4280 50 128 221 578 8910 14500 16700
2021-01-21 07:45 11.70 1420 16700 (2020) 50 (2013) 4280 50 128 221 578 8910 14500 16700
2021-01-21 06:45 11.73 1440 16700 (2020) 50 (2013) 4280 50 128 221 578 8910 14500 16700
2021-01-21 05:45 11.73 1440 16700 (2020) 50 (2013) 4280 50 128 221 578 8910 14500 16700
2021-01-21 04:45 11.70 1420 16700 (2020) 50 (2013) 4280 50 128 221 578 8910 14500 16700
2021-01-21 03:45 11.62 1350 16700 (2020) 50 (2013) 4280 50 128 221 578 8910 14500 16700
2021-01-21 02:45 11.54 1290 16700 (2020) 50 (2013) 4280 50 128 221 578 8910 14500 16700
2021-01-21 01:45 11.48 1240 16700 (2020) 50 (2013) 4280 50 128 221 578 8910 14500 16700
2021-01-21 00:45 11.51 1270 16700 (2020) 50 (2013) 4280 50 128 221 578 8910 14500 16700
2021-01-20 23:45 11.59 1330 17300 (2020) 50 (2013) 4400 50 181 266 579 8760 14100 17300
2021-01-20 22:45 11.67 1390 17300 (2020) 50 (2013) 4400 50 181 266 579 8760 14100 17300
2021-01-20 21:45 11.71 1420 17300 (2020) 50 (2013) 4400 50 181 266 579 8760 14100 17300
2021-01-20 20:45 11.66 1380 17300 (2020) 50 (2013) 4400 50 181 266 579 8760 14100 17300
2021-01-20 19:45 11.64 1370 17300 (2020) 50 (2013) 4400 50 181 266 579 8760 14100 17300
2021-01-20 18:45 11.59 1330 17300 (2020) 50 (2013) 4400 50 181 266 579 8760 14100 17300
2021-01-20 17:45 11.58 1320 17300 (2020) 50 (2013) 4400 50 181 266 579 8760 14100 17300
2021-01-20 16:45 11.48 1240 17300 (2020) 50 (2013) 4400 50 181 266 579 8760 14100 17300
2021-01-20 15:45 11.51 1270 17300 (2020) 50 (2013) 4400 50 181 266 579 8760 14100 17300
2021-01-20 14:45 11.46 1230 17300 (2020) 50 (2013) 4400 50 181 266 579 8760 14100 17300
2021-01-20 13:45 11.54 1290 17300 (2020) 50 (2013) 4400 50 181 266 579 8760 14100 17300
2021-01-20 12:45 11.64 1370 17300 (2020) 50 (2013) 4400 50 181 266 579 8760 14100 17300
2021-01-20 11:45 11.72 1430 17300 (2020) 50 (2013) 4400 50 181 266 579 8760 14100 17300
2021-01-20 10:45 11.82 1520 17300 (2020) 50 (2013) 4400 50 181 266 579 8760 14100 17300
2021-01-20 09:45 11.91 1590 17300 (2020) 50 (2013) 4400 50 181 266 579 8760 14100 17300
2021-01-20 08:45 11.94 1620 17300 (2020) 50 (2013) 4400 50 181 266 579 8760 14100 17300
2021-01-20 07:45 11.97 1650 17300 (2020) 50 (2013) 4400 50 181 266 579 8760 14100 17300
2021-01-20 06:45 11.97 1650 17300 (2020) 50 (2013) 4400 50 181 266 579 8760 14100 17300
2021-01-20 05:45 11.93 1610 17300 (2020) 50 (2013) 4400 50 181 266 579 8760 14100 17300
2021-01-20 04:45 11.87 1560 17300 (2020) 50 (2013) 4400 50 181 266 579 8760 14100 17300
2021-01-20 03:45 11.81 1510 17300 (2020) 50 (2013) 4400 50 181 266 579 8760 14100 17300
2021-01-20 02:45 11.77 1470 17300 (2020) 50 (2013) 4400 50 181 266 579 8760 14100 17300
2021-01-20 01:45 11.78 1480 17300 (2020) 50 (2013) 4400 50 181 266 579 8760 14100 17300
2021-01-20 00:45 11.80 1500 17300 (2020) 50 (2013) 4400 50 181 266 579 8760 14100 17300
2021-01-19 23:45 11.85 1540 16900 (2020) 50 (2013) 4270 50 228 322 610 7980 12100 16900
2021-01-19 22:45 11.89 1580 16900 (2020) 50 (2013) 4270 50 228 322 610 7980 12100 16900
2021-01-19 21:45 11.95 1630 16900 (2020) 50 (2013) 4270 50 228 322 610 7980 12100 16900
2021-01-19 20:45 12.02 1690 16900 (2020) 50 (2013) 4270 50 228 322 610 7980 12100 16900
2021-01-19 19:45 12.08 1740 16900 (2020) 50 (2013) 4270 50 228 322 610 7980 12100 16900
2021-01-19 18:45 12.10 1750 16900 (2020) 50 (2013) 4270 50 228 322 610 7980 12100 16900
2021-01-19 17:45 12.09 1750 16900 (2020) 50 (2013) 4270 50 228 322 610 7980 12100 16900
2021-01-19 16:45 12.06 1720 16900 (2020) 50 (2013) 4270 50 228 322 610 7980 12100 16900
2021-01-19 15:45 12.00 1670 16900 (2020) 50 (2013) 4270 50 228 322 610 7980 12100 16900
2021-01-19 14:45 11.96 1640 16900 (2020) 50 (2013) 4270 50 228 322 610 7980 12100 16900
2021-01-19 13:45 11.93 1610 16900 (2020) 50 (2013) 4270 50 228 322 610 7980 12100 16900
2021-01-19 12:45 11.96 1640 16900 (2020) 50 (2013) 4270 50 228 322 610 7980 12100 16900
2021-01-19 11:45 12.00 1670 16900 (2020) 50 (2013) 4270 50 228 322 610 7980 12100 16900
2021-01-19 10:45 12.05 1710 16900 (2020) 50 (2013) 4270 50 228 322 610 7980 12100 16900
2021-01-19 09:45 12.07 1730 16900 (2020) 50 (2013) 4270 50 228 322 610 7980 12100 16900
2021-01-19 08:45 12.09 1750 16900 (2020) 50 (2013) 4270 50 228 322 610 7980 12100 16900
2021-01-19 07:45 12.09 1750 16900 (2020) 50 (2013) 4270 50 228 322 610 7980 12100 16900
2021-01-19 06:45 12.09 1750 16900 (2020) 50 (2013) 4270 50 228 322 610 7980 12100 16900
2021-01-19 05:45 12.09 1750 16900 (2020) 50 (2013) 4270 50 228 322 610 7980 12100 16900
2021-01-19 04:45 12.06 1720 16900 (2020) 50 (2013) 4270 50 228 322 610 7980 12100 16900
2021-01-19 03:45 12.08 1740 16900 (2020) 50 (2013) 4270 50 228 322 610 7980 12100 16900
2021-01-19 02:45 12.09 1750 16900 (2020) 50 (2013) 4270 50 228 322 610 7980 12100 16900
2021-01-19 01:45 12.09 1750 16900 (2020) 50 (2013) 4270 50 228 322 610 7980 12100 16900
2021-01-19 00:45 12.09 1750 16900 (2020) 50 (2013) 4270 50 228 322 610 7980 12100 16900
2021-01-18 23:45 12.07 1730 16400 (2020) 50 (2013) 4090 50 149 317 787 7300 10400 16400
2021-01-18 22:45 12.06 1720 16400 (2020) 50 (2013) 4090 50 149 317 787 7300 10400 16400
2021-01-18 21:45 12.06 1720 16400 (2020) 50 (2013) 4090 50 149 317 787 7300 10400 16400
2021-01-18 20:45 12.08 1740 16400 (2020) 50 (2013) 4090 50 149 317 787 7300 10400 16400
2021-01-18 19:45 12.11 1760 16400 (2020) 50 (2013) 4090 50 149 317 787 7300 10400 16400
2021-01-18 18:45 12.11 1760 16400 (2020) 50 (2013) 4090 50 149 317 787 7300 10400 16400
2021-01-18 17:45 12.06 1720 16400 (2020) 50 (2013) 4090 50 149 317 787 7300 10400 16400
2021-01-18 16:45 12.01 1680 16400 (2020) 50 (2013) 4090 50 149 317 787 7300 10400 16400
2021-01-18 15:45 11.92 1600 16400 (2020) 50 (2013) 4090 50 149 317 787 7300 10400 16400
2021-01-18 14:45 11.94 1620 16400 (2020) 50 (2013) 4090 50 149 317 787 7300 10400 16400
2021-01-18 13:45 11.97 1650 16400 (2020) 50 (2013) 4090 50 149 317 787 7300 10400 16400
2021-01-18 12:45 11.98 1660 16400 (2020) 50 (2013) 4090 50 149 317 787 7300 10400 16400
2021-01-18 11:45 12.11 1760 16400 (2020) 50 (2013) 4090 50 149 317 787 7300 10400 16400
2021-01-18 10:45 12.12 1770 16400 (2020) 50 (2013) 4090 50 149 317 787 7300 10400 16400
2021-01-18 09:45 12.12 1770 16400 (2020) 50 (2013) 4090 50 149 317 787 7300 10400 16400
2021-01-18 08:45 12.11 1760 16400 (2020) 50 (2013) 4090 50 149 317 787 7300 10400 16400
2021-01-18 07:45 12.08 1740 16400 (2020) 50 (2013) 4090 50 149 317 787 7300 10400 16400
2021-01-18 06:45 12.05 1710 16400 (2020) 50 (2013) 4090 50 149 317 787 7300 10400 16400
2021-01-18 05:45 12.03 1700 16400 (2020) 50 (2013) 4090 50 149 317 787 7300 10400 16400
2021-01-18 04:45 12.01 1680 16400 (2020) 50 (2013) 4090 50 149 317 787 7300 10400 16400
2021-01-18 03:45 12.02 1690 16400 (2020) 50 (2013) 4090 50 149 317 787 7300 10400 16400
2021-01-18 02:45 12.03 1700 16400 (2020) 50 (2013) 4090 50 149 317 787 7300 10400 16400
2021-01-18 01:45 12.06 1720 16400 (2020) 50 (2013) 4090 50 149 317 787 7300 10400 16400
2021-01-18 00:45 12.09 1750 16400 (2020) 50 (2013) 4090 50 149 317 787 7300 10400 16400
2021-01-17 23:45 12.11 1760 18200 (2020) 76 (2012) 4070 76 108 403 832 6990 9360 18200
2021-01-17 22:45 12.14 1790 18200 (2020) 76 (2012) 4070 76 108 403 832 6990 9360 18200
2021-01-17 21:45 12.13 1780 18200 (2020) 76 (2012) 4070 76 108 403 832 6990 9360 18200
2021-01-17 20:45 12.12 1770 18200 (2020) 76 (2012) 4070 76 108 403 832 6990 9360 18200
2021-01-17 19:45 12.09 1750 18200 (2020) 76 (2012) 4070 76 108 403 832 6990 9360 18200
2021-01-17 18:45 12.04 1710 18200 (2020) 76 (2012) 4070 76 108 403 832 6990 9360 18200
2021-01-17 17:45 11.99 1660 18200 (2020) 76 (2012) 4070 76 108 403 832 6990 9360 18200
2021-01-17 16:45 11.92 1600 18200 (2020) 76 (2012) 4070 76 108 403 832 6990 9360 18200
2021-01-17 15:45 11.88 1570 18200 (2020) 76 (2012) 4070 76 108 403 832 6990 9360 18200
2021-01-17 14:45 11.89 1580 18200 (2020) 76 (2012) 4070 76 108 403 832 6990 9360 18200
2021-01-17 13:45 11.90 1580 18200 (2020) 76 (2012) 4070 76 108 403 832 6990 9360 18200
2021-01-17 12:45 11.94 1620 18200 (2020) 76 (2012) 4070 76 108 403 832 6990 9360 18200
2021-01-17 11:45 11.98 1660 18200 (2020) 76 (2012) 4070 76 108 403 832 6990 9360 18200
2021-01-17 10:45 12.02 1690 18200 (2020) 76 (2012) 4070 76 108 403 832 6990 9360 18200
2021-01-17 09:45 12.09 1750 18200 (2020) 76 (2012) 4070 76 108 403 832 6990 9360 18200
2021-01-17 08:45 12.09 1750 18200 (2020) 76 (2012) 4070 76 108 403 832 6990 9360 18200
2021-01-17 07:45 12.06 1720 18200 (2020) 76 (2012) 4070 76 108 403 832 6990 9360 18200
2021-01-17 06:45 12.01 1680 18200 (2020) 76 (2012) 4070 76 108 403 832 6990 9360 18200
2021-01-17 05:45 11.95 1630 18200 (2020) 76 (2012) 4070 76 108 403 832 6990 9360 18200
2021-01-17 04:45 11.92 1600 18200 (2020) 76 (2012) 4070 76 108 403 832 6990 9360 18200
2021-01-17 03:45 11.93 1610 18200 (2020) 76 (2012) 4070 76 108 403 832 6990 9360 18200
2021-01-17 02:45 11.92 1600 18200 (2020) 76 (2012) 4070 76 108 403 832 6990 9360 18200
2021-01-17 01:45 11.95 1630 18200 (2020) 76 (2012) 4070 76 108 403 832 6990 9360 18200
2021-01-17 00:45 11.96 1640 18200 (2020) 76 (2012) 4070 76 108 403 832 6990 9360 18200
2021-01-16 22:45 11.99 1660 19600 (2020) 52 (2013) 4310 52 68 305 877 7770 10400 19600
2021-01-16 21:45 12.01 1680 19600 (2020) 52 (2013) 4310 52 68 305 877 7770 10400 19600
2021-01-16 20:45 12.03 1700 19600 (2020) 52 (2013) 4310 52 68 305 877 7770 10400 19600
2021-01-16 19:45 12.02 1690 19600 (2020) 52 (2013) 4310 52 68 305 877 7770 10400 19600
2021-01-16 18:45 11.99 1660 19600 (2020) 52 (2013) 4310 52 68 305 877 7770 10400 19600
2021-01-16 17:45 11.96 1640 19600 (2020) 52 (2013) 4310 52 68 305 877 7770 10400 19600
2021-01-16 16:45 11.89 1580 19600 (2020) 52 (2013) 4310 52 68 305 877 7770 10400 19600
2021-01-16 15:45 11.85 1540 19600 (2020) 52 (2013) 4310 52 68 305 877 7770 10400 19600
2021-01-16 14:45 11.87 1560 19600 (2020) 52 (2013) 4310 52 68 305 877 7770 10400 19600
2021-01-16 13:45 11.88 1570 19600 (2020) 52 (2013) 4310 52 68 305 877 7770 10400 19600
2021-01-16 12:45 11.89 1580 19600 (2020) 52 (2013) 4310 52 68 305 877 7770 10400 19600
2021-01-16 11:45 11.90 1580 19600 (2020) 52 (2013) 4310 52 68 305 877 7770 10400 19600
2021-01-16 10:45 11.89 1580 19600 (2020) 52 (2013) 4310 52 68 305 877 7770 10400 19600
2021-01-16 09:45 11.89 1580 19600 (2020) 52 (2013) 4310 52 68 305 877 7770 10400 19600
2021-01-16 08:45 11.94 1620 19600 (2020) 52 (2013) 4310 52 68 305 877 7770 10400 19600
2021-01-16 07:45 11.95 1630 19600 (2020) 52 (2013) 4310 52 68 305 877 7770 10400 19600
2021-01-16 06:45 11.90 1580 19600 (2020) 52 (2013) 4310 52 68 305 877 7770 10400 19600
2021-01-16 05:45 11.87 1560 19600 (2020) 52 (2013) 4310 52 68 305 877 7770 10400 19600
2021-01-16 04:45 11.85 1540 19600 (2020) 52 (2013) 4310 52 68 305 877 7770 10400 19600
2021-01-16 03:45 11.84 1530 19600 (2020) 52 (2013) 4310 52 68 305 877 7770 10400 19600
2021-01-16 02:45 11.83 1520 19600 (2020) 52 (2013) 4310 52 68 305 877 7770 10400 19600
2021-01-16 01:45 11.83 1520 19600 (2020) 52 (2013) 4310 52 68 305 877 7770 10400 19600
2021-01-16 00:45 11.85 1540 19600 (2020) 52 (2013) 4310 52 68 305 877 7770 10400 19600
2021-01-15 23:45 11.87 1560 20400 (2020) 50 (2013) 4650 50 98 362 858 9000 12200 20400
2021-01-15 22:45 11.89 1580 20400 (2020) 50 (2013) 4650 50 98 362 858 9000 12200 20400
2021-01-15 21:45 11.89 1580 20400 (2020) 50 (2013) 4650 50 98 362 858 9000 12200 20400
2021-01-15 20:45 11.88 1570 20400 (2020) 50 (2013) 4650 50 98 362 858 9000 12200 20400
2021-01-15 19:45 11.87 1560 20400 (2020) 50 (2013) 4650 50 98 362 858 9000 12200 20400
2021-01-15 18:45 11.83 1520 20400 (2020) 50 (2013) 4650 50 98 362 858 9000 12200 20400
2021-01-15 17:45 11.76 1470 20400 (2020) 50 (2013) 4650 50 98 362 858 9000 12200 20400
2021-01-15 16:45 11.71 1420 20400 (2020) 50 (2013) 4650 50 98 362 858 9000 12200 20400
2021-01-15 15:45 11.65 1380 20400 (2020) 50 (2013) 4650 50 98 362 858 9000 12200 20400
2021-01-15 14:45 11.63 1360 20400 (2020) 50 (2013) 4650 50 98 362 858 9000 12200 20400
2021-01-15 13:45 11.62 1350 20400 (2020) 50 (2013) 4650 50 98 362 858 9000 12200 20400
2021-01-15 12:45 11.64 1370 20400 (2020) 50 (2013) 4650 50 98 362 858 9000 12200 20400
2021-01-15 11:45 11.70 1420 20400 (2020) 50 (2013) 4650 50 98 362 858 9000 12200 20400
2021-01-15 10:45 11.72 1430 20400 (2020) 50 (2013) 4650 50 98 362 858 9000 12200 20400
2021-01-15 09:45 11.73 1440 20400 (2020) 50 (2013) 4650 50 98 362 858 9000 12200 20400
2021-01-15 08:45 11.75 1460 20400 (2020) 50 (2013) 4650 50 98 362 858 9000 12200 20400
2021-01-15 07:45 11.79 1490 20400 (2020) 50 (2013) 4650 50 98 362 858 9000 12200 20400
2021-01-15 06:45 11.77 1470 20400 (2020) 50 (2013) 4650 50 98 362 858 9000 12200 20400
2021-01-15 05:45 11.71 1420 20400 (2020) 50 (2013) 4650 50 98 362 858 9000 12200 20400
2021-01-15 04:45 11.68 1400 20400 (2020) 50 (2013) 4650 50 98 362 858 9000 12200 20400
2021-01-15 03:45 11.67 1390 20400 (2020) 50 (2013) 4650 50 98 362 858 9000 12200 20400
2021-01-15 02:45 11.65 1380 20400 (2020) 50 (2013) 4650 50 98 362 858 9000 12200 20400
2021-01-15 01:45 11.69 1410 20400 (2020) 50 (2013) 4650 50 98 362 858 9000 12200 20400
2021-01-15 00:45 11.74 1450 20400 (2020) 50 (2013) 4650 50 98 362 858 9000 12200 20400
2021-01-14 23:45 11.75 1460 20700 (2020) 50 (2013) 4740 50 61 305 802 9260 11600 20700
2021-01-14 22:45 11.76 1470 20700 (2020) 50 (2013) 4740 50 61 305 802 9260 11600 20700
2021-01-14 21:45 11.78 1480 20700 (2020) 50 (2013) 4740 50 61 305 802 9260 11600 20700
2021-01-14 20:45 11.80 1500 20700 (2020) 50 (2013) 4740 50 61 305 802 9260 11600 20700
2021-01-14 19:45 11.81 1510 20700 (2020) 50 (2013) 4740 50 61 305 802 9260 11600 20700
2021-01-14 18:45 11.81 1510 20700 (2020) 50 (2013) 4740 50 61 305 802 9260 11600 20700
2021-01-14 17:45 11.82 1520 20700 (2020) 50 (2013) 4740 50 61 305 802 9260 11600 20700
2021-01-14 16:45 11.82 1520 20700 (2020) 50 (2013) 4740 50 61 305 802 9260 11600 20700
2021-01-14 15:45 11.77 1470 20700 (2020) 50 (2013) 4740 50 61 305 802 9260 11600 20700
2021-01-14 14:45 11.75 1460 20700 (2020) 50 (2013) 4740 50 61 305 802 9260 11600 20700
2021-01-14 13:45 11.73 1440 20700 (2020) 50 (2013) 4740 50 61 305 802 9260 11600 20700
2021-01-14 12:45 11.69 1410 20700 (2020) 50 (2013) 4740 50 61 305 802 9260 11600 20700
2021-01-14 11:45 11.63 1360 20700 (2020) 50 (2013) 4740 50 61 305 802 9260 11600 20700
2021-01-14 10:45 11.59 1330 20700 (2020) 50 (2013) 4740 50 61 305 802 9260 11600 20700
2021-01-14 09:45 11.61 1340 20700 (2020) 50 (2013) 4740 50 61 305 802 9260 11600 20700
2021-01-14 08:45 11.62 1350 20700 (2020) 50 (2013) 4740 50 61 305 802 9260 11600 20700
2021-01-14 07:45 11.66 1380 20700 (2020) 50 (2013) 4740 50 61 305 802 9260 11600 20700
2021-01-14 06:45 11.69 1410 20700 (2020) 50 (2013) 4740 50 61 305 802 9260 11600 20700
2021-01-14 05:45 11.65 1380 20700 (2020) 50 (2013) 4740 50 61 305 802 9260 11600 20700
2021-01-14 04:45 11.65 1380 20700 (2020) 50 (2013) 4740 50 61 305 802 9260 11600 20700
2021-01-14 03:45 11.65 1380 20700 (2020) 50 (2013) 4740 50 61 305 802 9260 11600 20700
2021-01-14 02:45 11.67 1390 20700 (2020) 50 (2013) 4740 50 61 305 802 9260 11600 20700
2021-01-14 01:45 11.66 1380 20700 (2020) 50 (2013) 4740 50 61 305 802 9260 11600 20700
2021-01-14 00:45 11.70 1420 20700 (2020) 50 (2013) 4740 50 61 305 802 9260 11600 20700
2021-01-13 23:45 11.69 1410 19500 (2020) 50 (2013) 4310 50 115 315 784 8050 8740 19500
2021-01-13 22:45 11.70 1420 19500 (2020) 50 (2013) 4310 50 115 315 784 8050 8740 19500
2021-01-13 21:45 11.68 1400 19500 (2020) 50 (2013) 4310 50 115 315 784 8050 8740 19500
2021-01-13 20:45 11.67 1390 19500 (2020) 50 (2013) 4310 50 115 315 784 8050 8740 19500
2021-01-13 19:45 11.65 1380 19500 (2020) 50 (2013) 4310 50 115 315 784 8050 8740 19500
2021-01-13 18:45 11.63 1360 19500 (2020) 50 (2013) 4310 50 115 315 784 8050 8740 19500
2021-01-13 17:45 11.63 1360 19500 (2020) 50 (2013) 4310 50 115 315 784 8050 8740 19500
2021-01-13 16:45 11.61 1340 19500 (2020) 50 (2013) 4310 50 115 315 784 8050 8740 19500
2021-01-13 15:45 11.56 1310 19500 (2020) 50 (2013) 4310 50 115 315 784 8050 8740 19500
2021-01-13 14:45 11.57 1310 19500 (2020) 50 (2013) 4310 50 115 315 784 8050 8740 19500
2021-01-13 13:45 11.55 1300 19500 (2020) 50 (2013) 4310 50 115 315 784 8050 8740 19500
2021-01-13 12:45 11.59 1330 19500 (2020) 50 (2013) 4310 50 115 315 784 8050 8740 19500
2021-01-13 11:45 11.62 1350 19500 (2020) 50 (2013) 4310 50 115 315 784 8050 8740 19500
2021-01-13 10:45 11.62 1350 19500 (2020) 50 (2013) 4310 50 115 315 784 8050 8740 19500
2021-01-13 09:45 11.64 1370 19500 (2020) 50 (2013) 4310 50 115 315 784 8050 8740 19500
2021-01-13 08:45 11.64 1370 19500 (2020) 50 (2013) 4310 50 115 315 784 8050 8740 19500
2021-01-13 07:45 11.65 1380 19500 (2020) 50 (2013) 4310 50 115 315 784 8050 8740 19500
2021-01-13 06:45 11.64 1370 19500 (2020) 50 (2013) 4310 50 115 315 784 8050 8740 19500
2021-01-13 05:45 11.58 1320 19500 (2020) 50 (2013) 4310 50 115 315 784 8050 8740 19500
2021-01-13 04:45 11.54 1290 19500 (2020) 50 (2013) 4310 50 115 315 784 8050 8740 19500
2021-01-13 03:45 11.59 1330 19500 (2020) 50 (2013) 4310 50 115 315 784 8050 8740 19500
2021-01-13 02:45 11.59 1330 19500 (2020) 50 (2013) 4310 50 115 315 784 8050 8740 19500
2021-01-13 01:45 11.58 1320 19500 (2020) 50 (2013) 4310 50 115 315 784 8050 8740 19500
2021-01-13 00:45 11.59 1330 19500 (2020) 50 (2013) 4310 50 115 315 784 8050 8740 19500
2021-01-12 23:45 11.59 1330 16800 (2020) 50 (2013) 4020 50 99 245 708 8400 12300 16800
2021-01-12 22:45 11.61 1340 16800 (2020) 50 (2013) 4020 50 99 245 708 8400 12300 16800
2021-01-12 21:45 11.63 1360 16800 (2020) 50 (2013) 4020 50 99 245 708 8400 12300 16800
2021-01-12 20:45 11.64 1370 16800 (2020) 50 (2013) 4020 50 99 245 708 8400 12300 16800
2021-01-12 19:45 11.63 1360 16800 (2020) 50 (2013) 4020 50 99 245 708 8400 12300 16800
2021-01-12 18:45 11.60 1340 16800 (2020) 50 (2013) 4020 50 99 245 708 8400 12300 16800
2021-01-12 17:45 11.54 1290 16800 (2020) 50 (2013) 4020 50 99 245 708 8400 12300 16800
2021-01-12 16:45 11.49 1250 16800 (2020) 50 (2013) 4020 50 99 245 708 8400 12300 16800
2021-01-12 15:45 11.42 1200 16800 (2020) 50 (2013) 4020 50 99 245 708 8400 12300 16800
2021-01-12 14:45 11.51 1270 16800 (2020) 50 (2013) 4020 50 99 245 708 8400 12300 16800
2021-01-12 13:45 11.56 1310 16800 (2020) 50 (2013) 4020 50 99 245 708 8400 12300 16800
2021-01-12 12:45 11.64 1370 16800 (2020) 50 (2013) 4020 50 99 245 708 8400 12300 16800
2021-01-12 11:45 11.69 1410 16800 (2020) 50 (2013) 4020 50 99 245 708 8400 12300 16800
2021-01-12 10:45 11.77 1470 16800 (2020) 50 (2013) 4020 50 99 245 708 8400 12300 16800
2021-01-12 09:45 11.79 1490 16800 (2020) 50 (2013) 4020 50 99 245 708 8400 12300 16800
2021-01-12 08:45 11.80 1500 16800 (2020) 50 (2013) 4020 50 99 245 708 8400 12300 16800
2021-01-12 07:45 11.82 1520 16800 (2020) 50 (2013) 4020 50 99 245 708 8400 12300 16800
2021-01-12 06:45 11.83 1520 16800 (2020) 50 (2013) 4020 50 99 245 708 8400 12300 16800
2021-01-12 05:45 11.84 1530 16800 (2020) 50 (2013) 4020 50 99 245 708 8400 12300 16800
2021-01-12 04:45 11.84 1530 16800 (2020) 50 (2013) 4020 50 99 245 708 8400 12300 16800
2021-01-12 03:45 11.83 1520 16800 (2020) 50 (2013) 4020 50 99 245 708 8400 12300 16800
2021-01-12 02:45 11.81 1510 16800 (2020) 50 (2013) 4020 50 99 245 708 8400 12300 16800
2021-01-12 01:45 11.80 1500 16800 (2020) 50 (2013) 4020 50 99 245 708 8400 12300 16800
2021-01-12 00:45 11.80 1500 16800 (2020) 50 (2013) 4020 50 99 245 708 8400 12300 16800
2021-01-11 23:45 11.82 1520 15100 (2016) 50 (2013) 3820 50 90 139 628 8470 12900 15100
2021-01-11 22:45 11.81 1510 15100 (2016) 50 (2013) 3820 50 90 139 628 8470 12900 15100
2021-01-11 21:45 11.82 1520 15100 (2016) 50 (2013) 3820 50 90 139 628 8470 12900 15100
2021-01-11 20:45 11.83 1520 15100 (2016) 50 (2013) 3820 50 90 139 628 8470 12900 15100
2021-01-11 19:45 11.84 1530 15100 (2016) 50 (2013) 3820 50 90 139 628 8470 12900 15100
2021-01-11 18:45 11.83 1520 15100 (2016) 50 (2013) 3820 50 90 139 628 8470 12900 15100
2021-01-11 17:45 11.80 1500 15100 (2016) 50 (2013) 3820 50 90 139 628 8470 12900 15100
2021-01-11 16:45 11.76 1470 15100 (2016) 50 (2013) 3820 50 90 139 628 8470 12900 15100
2021-01-11 15:45 11.75 1460 15100 (2016) 50 (2013) 3820 50 90 139 628 8470 12900 15100
2021-01-11 14:45 11.78 1480 15100 (2016) 50 (2013) 3820 50 90 139 628 8470 12900 15100
2021-01-11 13:45 11.82 1520 15100 (2016) 50 (2013) 3820 50 90 139 628 8470 12900 15100
2021-01-11 12:45 11.91 1590 15100 (2016) 50 (2013) 3820 50 90 139 628 8470 12900 15100
2021-01-11 11:45 11.97 1650 15100 (2016) 50 (2013) 3820 50 90 139 628 8470 12900 15100
2021-01-11 10:45 12.02 1690 15100 (2016) 50 (2013) 3820 50 90 139 628 8470 12900 15100
2021-01-11 09:45 12.04 1710 15100 (2016) 50 (2013) 3820 50 90 139 628 8470 12900 15100
2021-01-11 08:45 12.04 1710 15100 (2016) 50 (2013) 3820 50 90 139 628 8470 12900 15100
2021-01-11 07:45 12.05 1710 15100 (2016) 50 (2013) 3820 50 90 139 628 8470 12900 15100
2021-01-11 06:45 12.06 1720 15100 (2016) 50 (2013) 3820 50 90 139 628 8470 12900 15100
2021-01-11 05:45 12.07 1730 15100 (2016) 50 (2013) 3820 50 90 139 628 8470 12900 15100
2021-01-11 04:45 12.07 1730 15100 (2016) 50 (2013) 3820 50 90 139 628 8470 12900 15100
2021-01-11 03:45 12.09 1750 15100 (2016) 50 (2013) 3820 50 90 139 628 8470 12900 15100
2021-01-11 02:45 12.10 1750 15100 (2016) 50 (2013) 3820 50 90 139 628 8470 12900 15100
2021-01-11 01:45 12.11 1760 15100 (2016) 50 (2013) 3820 50 90 139 628 8470 12900 15100
2021-01-11 00:45 12.11 1760 15100 (2016) 50 (2013) 3820 50 90 139 628 8470 12900 15100
2021-01-10 23:45 12.11 1760 14600 (2016) 50 (2013) 2890 50 144 165 610 4650 4920 14600
2021-01-10 22:45 12.11 1760 14600 (2016) 50 (2013) 2890 50 144 165 610 4650 4920 14600
2021-01-10 21:45 12.11 1760 14600 (2016) 50 (2013) 2890 50 144 165 610 4650 4920 14600
2021-01-10 20:45 12.12 1770 14600 (2016) 50 (2013) 2890 50 144 165 610 4650 4920 14600
2021-01-10 19:45 12.13 1780 14600 (2016) 50 (2013) 2890 50 144 165 610 4650 4920 14600
2021-01-10 17:45 12.16 1800 14600 (2016) 50 (2013) 2890 50 144 165 610 4650 4920 14600
2021-01-10 16:45 12.17 1810 14600 (2016) 50 (2013) 2890 50 144 165 610 4650 4920 14600
2021-01-10 15:45 12.18 1820 14600 (2016) 50 (2013) 2890 50 144 165 610 4650 4920 14600
2021-01-10 14:45 12.19 1830 14600 (2016) 50 (2013) 2890 50 144 165 610 4650 4920 14600
2021-01-10 13:45 12.20 1840 14600 (2016) 50 (2013) 2890 50 144 165 610 4650 4920 14600
2021-01-10 12:45 12.15 1790 14600 (2016) 50 (2013) 2890 50 144 165 610 4650 4920 14600
2021-01-10 11:45 12.18 1820 14600 (2016) 50 (2013) 2890 50 144 165 610 4650 4920 14600
2021-01-10 10:45 12.19 1830 14600 (2016) 50 (2013) 2890 50 144 165 610 4650 4920 14600
2021-01-10 09:45 12.23 1860 14600 (2016) 50 (2013) 2890 50 144 165 610 4650 4920 14600
2021-01-10 08:45 12.24 1870 14600 (2016) 50 (2013) 2890 50 144 165 610 4650 4920 14600
2021-01-10 07:45 12.25 1880 14600 (2016) 50 (2013) 2890 50 144 165 610 4650 4920 14600
2021-01-10 06:45 12.25 1880 14600 (2016) 50 (2013) 2890 50 144 165 610 4650 4920 14600
2021-01-10 05:45 12.26 1890 14600 (2016) 50 (2013) 2890 50 144 165 610 4650 4920 14600
2021-01-10 04:45 12.27 1900 14600 (2016) 50 (2013) 2890 50 144 165 610 4650 4920 14600
2021-01-10 03:45 12.29 1910 14600 (2016) 50 (2013) 2890 50 144 165 610 4650 4920 14600
2021-01-10 02:45 12.30 1920 14600 (2016) 50 (2013) 2890 50 144 165 610 4650 4920 14600
2021-01-10 01:45 12.32 1940 14600 (2016) 50 (2013) 2890 50 144 165 610 4650 4920 14600
2021-01-10 00:45 12.33 1950 14600 (2016) 50 (2013) 2890 50 144 165 610 4650 4920 14600
2021-01-09 23:45 12.34 1960 12800 (2016) 77 (2013) 2660 77 166 173 426 4530 4580 12800
2021-01-09 22:45 12.35 1970 12800 (2016) 77 (2013) 2660 77 166 173 426 4530 4580 12800
2021-01-09 20:45 12.38 1990 12800 (2016) 77 (2013) 2660 77 166 173 426 4530 4580 12800
2021-01-09 19:45 12.39 2000 12800 (2016) 77 (2013) 2660 77 166 173 426 4530 4580 12800
2021-01-09 18:45 12.40 2010 12800 (2016) 77 (2013) 2660 77 166 173 426 4530 4580 12800
2021-01-09 17:45 12.41 2020 12800 (2016) 77 (2013) 2660 77 166 173 426 4530 4580 12800
2021-01-09 16:45 12.43 2040 12800 (2016) 77 (2013) 2660 77 166 173 426 4530 4580 12800
2021-01-09 15:45 12.43 2040 12800 (2016) 77 (2013) 2660 77 166 173 426 4530 4580 12800
2021-01-09 14:45 12.44 2050 12800 (2016) 77 (2013) 2660 77 166 173 426 4530 4580 12800
2021-01-09 13:45 12.45 2050 12800 (2016) 77 (2013) 2660 77 166 173 426 4530 4580 12800
2021-01-09 12:45 12.45 2050 12800 (2016) 77 (2013) 2660 77 166 173 426 4530 4580 12800
2021-01-09 11:45 12.46 2060 12800 (2016) 77 (2013) 2660 77 166 173 426 4530 4580 12800
2021-01-09 10:45 12.47 2070 12800 (2016) 77 (2013) 2660 77 166 173 426 4530 4580 12800
2021-01-09 09:45 12.47 2070 12800 (2016) 77 (2013) 2660 77 166 173 426 4530 4580 12800
2021-01-09 08:45 12.47 2070 12800 (2016) 77 (2013) 2660 77 166 173 426 4530 4580 12800
2021-01-09 07:45 12.47 2070 12800 (2016) 77 (2013) 2660 77 166 173 426 4530 4580 12800
2021-01-09 06:45 12.47 2070 12800 (2016) 77 (2013) 2660 77 166 173 426 4530 4580 12800
2021-01-09 05:45 12.46 2060 12800 (2016) 77 (2013) 2660 77 166 173 426 4530 4580 12800
2021-01-09 04:45 12.45 2050 12800 (2016) 77 (2013) 2660 77 166 173 426 4530 4580 12800
2021-01-09 03:45 12.43 2040 12800 (2016) 77 (2013) 2660 77 166 173 426 4530 4580 12800
2021-01-09 02:45 12.40 2010 12800 (2016) 77 (2013) 2660 77 166 173 426 4530 4580 12800
2021-01-09 01:45 12.38 1990 12800 (2016) 77 (2013) 2660 77 166 173 426 4530 4580 12800
2021-01-09 00:45 12.36 1970 12800 (2016) 77 (2013) 2660 77 166 173 426 4530 4580 12800
2021-01-08 23:45 12.34 1960 8060 (2016) 73 (2013) 2130 73 163 197 503 4540 4640 8060
2021-01-08 22:45 12.32 1940 8060 (2016) 73 (2013) 2130 73 163 197 503 4540 4640 8060
2021-01-08 21:45 12.30 1920 8060 (2016) 73 (2013) 2130 73 163 197 503 4540 4640 8060
2021-01-08 20:45 12.27 1900 8060 (2016) 73 (2013) 2130 73 163 197 503 4540 4640 8060
2021-01-08 19:45 12.23 1860 8060 (2016) 73 (2013) 2130 73 163 197 503 4540 4640 8060
2021-01-08 18:45 12.19 1830 8060 (2016) 73 (2013) 2130 73 163 197 503 4540 4640 8060
2021-01-08 17:45 12.15 1790 8060 (2016) 73 (2013) 2130 73 163 197 503 4540 4640 8060
2021-01-08 16:45 12.12 1770 8060 (2016) 73 (2013) 2130 73 163 197 503 4540 4640 8060
2021-01-08 15:45 12.10 1750 8060 (2016) 73 (2013) 2130 73 163 197 503 4540 4640 8060
2021-01-08 14:45 12.09 1750 8060 (2016) 73 (2013) 2130 73 163 197 503 4540 4640 8060
2021-01-08 13:45 12.07 1730 8060 (2016) 73 (2013) 2130 73 163 197 503 4540 4640 8060
2021-01-08 12:45 12.08 1740 8060 (2016) 73 (2013) 2130 73 163 197 503 4540 4640 8060
2021-01-08 11:45 12.07 1730 8060 (2016) 73 (2013) 2130 73 163 197 503 4540 4640 8060
2021-01-08 10:45 12.06 1720 8060 (2016) 73 (2013) 2130 73 163 197 503 4540 4640 8060
2021-01-08 09:45 12.04 1710 8060 (2016) 73 (2013) 2130 73 163 197 503 4540 4640 8060
2021-01-08 08:45 12.03 1700 8060 (2016) 73 (2013) 2130 73 163 197 503 4540 4640 8060
2021-01-08 07:45 12.01 1680 8060 (2016) 73 (2013) 2130 73 163 197 503 4540 4640 8060
2021-01-08 06:45 11.99 1660 8060 (2016) 73 (2013) 2130 73 163 197 503 4540 4640 8060
2021-01-08 05:45 11.96 1640 8060 (2016) 73 (2013) 2130 73 163 197 503 4540 4640 8060
2021-01-08 04:45 11.94 1620 8060 (2016) 73 (2013) 2130 73 163 197 503 4540 4640 8060
2021-01-08 03:45 11.91 1590 8060 (2016) 73 (2013) 2130 73 163 197 503 4540 4640 8060
2021-01-08 02:45 11.89 1580 8060 (2016) 73 (2013) 2130 73 163 197 503 4540 4640 8060
2021-01-08 01:45 11.89 1580 8060 (2016) 73 (2013) 2130 73 163 197 503 4540 4640 8060
2021-01-08 00:45 11.91 1590 8060 (2016) 73 (2013) 2130 73 163 197 503 4540 4640 8060
2021-01-07 23:45 11.91 1590 7460 (2016) 50 (2013) 2120 50 190 198 468 4690 4790 7460
2021-01-07 22:45 11.92 1600 7460 (2016) 50 (2013) 2120 50 190 198 468 4690 4790 7460
2021-01-07 21:45 11.92 1600 7460 (2016) 50 (2013) 2120 50 190 198 468 4690 4790 7460
2021-01-07 20:45 11.89 1580 7460 (2016) 50 (2013) 2120 50 190 198 468 4690 4790 7460
2021-01-07 19:45 11.86 1550 7460 (2016) 50 (2013) 2120 50 190 198 468 4690 4790 7460
2021-01-07 18:45 11.84 1530 7460 (2016) 50 (2013) 2120 50 190 198 468 4690 4790 7460
2021-01-07 17:45 11.80 1500 7460 (2016) 50 (2013) 2120 50 190 198 468 4690 4790 7460
2021-01-07 16:45 11.77 1470 7460 (2016) 50 (2013) 2120 50 190 198 468 4690 4790 7460
2021-01-07 15:45 11.74 1450 7460 (2016) 50 (2013) 2120 50 190 198 468 4690 4790 7460
2021-01-07 14:45 11.71 1420 7460 (2016) 50 (2013) 2120 50 190 198 468 4690 4790 7460
2021-01-07 13:45 11.67 1390 7460 (2016) 50 (2013) 2120 50 190 198 468 4690 4790 7460
2021-01-07 12:45 11.64 1370 7460 (2016) 50 (2013) 2120 50 190 198 468 4690 4790 7460
2021-01-07 11:45 11.61 1340 7460 (2016) 50 (2013) 2120 50 190 198 468 4690 4790 7460
2021-01-07 10:45 11.57 1310 7460 (2016) 50 (2013) 2120 50 190 198 468 4690 4790 7460
2021-01-07 09:45 11.53 1280 7460 (2016) 50 (2013) 2120 50 190 198 468 4690 4790 7460
2021-01-07 08:45 11.49 1250 7460 (2016) 50 (2013) 2120 50 190 198 468 4690 4790 7460
2021-01-07 07:45 11.45 1220 7460 (2016) 50 (2013) 2120 50 190 198 468 4690 4790 7460
2021-01-07 06:45 11.42 1200 7460 (2016) 50 (2013) 2120 50 190 198 468 4690 4790 7460
2021-01-07 05:45 11.39 1180 7460 (2016) 50 (2013) 2120 50 190 198 468 4690 4790 7460
2021-01-07 04:45 11.36 1160 7460 (2016) 50 (2013) 2120 50 190 198 468 4690 4790 7460
2021-01-07 03:45 11.35 1150 7460 (2016) 50 (2013) 2120 50 190 198 468 4690 4790 7460
2021-01-07 02:45 11.33 1130 7460 (2016) 50 (2013) 2120 50 190 198 468 4690 4790 7460
2021-01-07 01:45 11.31 1120 7460 (2016) 50 (2013) 2120 50 190 198 468 4690 4790 7460
2021-01-07 00:45 11.32 1130 7460 (2016) 50 (2013) 2120 50 190 198 468 4690 4790 7460
2021-01-06 23:45 11.33 1130 9660 (2016) 50 (2013) 2470 50 198 215 620 5060 5090 9660
2021-01-06 22:45 11.35 1150 9660 (2016) 50 (2013) 2470 50 198 215 620 5060 5090 9660
2021-01-06 21:45 11.38 1170 9660 (2016) 50 (2013) 2470 50 198 215 620 5060 5090 9660
2021-01-06 20:45 11.38 1170 9660 (2016) 50 (2013) 2470 50 198 215 620 5060 5090 9660
2021-01-06 19:45 11.41 1190 9660 (2016) 50 (2013) 2470 50 198 215 620 5060 5090 9660
2021-01-06 18:45 11.34 1140 9660 (2016) 50 (2013) 2470 50 198 215 620 5060 5090 9660
2021-01-06 17:45 11.37 1160 9660 (2016) 50 (2013) 2470 50 198 215 620 5060 5090 9660
2021-01-06 16:45 11.38 1170 9660 (2016) 50 (2013) 2470 50 198 215 620 5060 5090 9660
2021-01-06 15:45 11.35 1150 9660 (2016) 50 (2013) 2470 50 198 215 620 5060 5090 9660
2021-01-06 14:45 11.37 1160 9660 (2016) 50 (2013) 2470 50 198 215 620 5060 5090 9660
2021-01-06 13:45 11.38 1170 9660 (2016) 50 (2013) 2470 50 198 215 620 5060 5090 9660
2021-01-06 12:45 11.36 1160 9660 (2016) 50 (2013) 2470 50 198 215 620 5060 5090 9660
2021-01-06 11:45 11.39 1180 9660 (2016) 50 (2013) 2470 50 198 215 620 5060 5090 9660
2021-01-06 10:45 11.35 1150 9660 (2016) 50 (2013) 2470 50 198 215 620 5060 5090 9660
2021-01-06 09:45 11.36 1160 9660 (2016) 50 (2013) 2470 50 198 215 620 5060 5090 9660
2021-01-06 08:45 11.37 1160 9660 (2016) 50 (2013) 2470 50 198 215 620 5060 5090 9660
2021-01-06 07:45 11.32 1130 9660 (2016) 50 (2013) 2470 50 198 215 620 5060 5090 9660
2021-01-06 06:45 11.35 1150 9660 (2016) 50 (2013) 2470 50 198 215 620 5060 5090 9660
2021-01-06 05:45 11.32 1130 9660 (2016) 50 (2013) 2470 50 198 215 620 5060 5090 9660
2021-01-06 04:45 11.32 1130 9660 (2016) 50 (2013) 2470 50 198 215 620 5060 5090 9660
2021-01-06 03:45 11.35 1150 9660 (2016) 50 (2013) 2470 50 198 215 620 5060 5090 9660
2021-01-06 02:45 11.30 1110 9660 (2016) 50 (2013) 2470 50 198 215 620 5060 5090 9660
2021-01-06 01:45 11.29 1110 9660 (2016) 50 (2013) 2470 50 198 215 620 5060 5090 9660
2021-01-06 00:45 11.35 1150 9660 (2016) 50 (2013) 2470 50 198 215 620 5060 5090 9660
2021-01-05 23:45 11.35 1150 13200 (2016) 50 (2013) 3150 50 213 247 613 6240 6650 13200
2021-01-05 22:45 11.35 1150 13200 (2016) 50 (2013) 3150 50 213 247 613 6240 6650 13200
2021-01-05 21:45 11.31 1120 13200 (2016) 50 (2013) 3150 50 213 247 613 6240 6650 13200
2021-01-05 20:45 11.35 1150 13200 (2016) 50 (2013) 3150 50 213 247 613 6240 6650 13200
2021-01-05 19:45 11.35 1150 13200 (2016) 50 (2013) 3150 50 213 247 613 6240 6650 13200
2021-01-05 18:45 11.33 1130 13200 (2016) 50 (2013) 3150 50 213 247 613 6240 6650 13200
2021-01-05 17:45 11.31 1120 13200 (2016) 50 (2013) 3150 50 213 247 613 6240 6650 13200
2021-01-05 16:45 11.30 1110 13200 (2016) 50 (2013) 3150 50 213 247 613 6240 6650 13200
2021-01-05 15:45 11.26 1080 13200 (2016) 50 (2013) 3150 50 213 247 613 6240 6650 13200
2021-01-05 14:45 11.33 1130 13200 (2016) 50 (2013) 3150 50 213 247 613 6240 6650 13200
2021-01-05 13:45 11.32 1130 13200 (2016) 50 (2013) 3150 50 213 247 613 6240 6650 13200
2021-01-05 12:45 11.39 1180 13200 (2016) 50 (2013) 3150 50 213 247 613 6240 6650 13200
2021-01-05 11:45 11.39 1180 13200 (2016) 50 (2013) 3150 50 213 247 613 6240 6650 13200
2021-01-05 10:45 11.42 1200 13200 (2016) 50 (2013) 3150 50 213 247 613 6240 6650 13200
2021-01-05 09:45 11.42 1200 13200 (2016) 50 (2013) 3150 50 213 247 613 6240 6650 13200
2021-01-05 08:45 11.43 1210 13200 (2016) 50 (2013) 3150 50 213 247 613 6240 6650 13200
2021-01-05 07:45 11.43 1210 13200 (2016) 50 (2013) 3150 50 213 247 613 6240 6650 13200
2021-01-05 06:45 11.43 1210 13200 (2016) 50 (2013) 3150 50 213 247 613 6240 6650 13200
2021-01-05 05:45 11.44 1210 13200 (2016) 50 (2013) 3150 50 213 247 613 6240 6650 13200
2021-01-05 04:45 11.44 1210 13200 (2016) 50 (2013) 3150 50 213 247 613 6240 6650 13200
2021-01-05 03:45 11.45 1220 13200 (2016) 50 (2013) 3150 50 213 247 613 6240 6650 13200
2021-01-05 02:45 11.46 1230 13200 (2016) 50 (2013) 3150 50 213 247 613 6240 6650 13200
2021-01-05 01:45 11.47 1240 13200 (2016) 50 (2013) 3150 50 213 247 613 6240 6650 13200
2021-01-05 00:45 11.49 1250 13200 (2016) 50 (2013) 3150 50 213 247 613 6240 6650 13200
2021-01-04 23:45 11.51 1270 16600 (2016) 50 (2013) 4360 50 211 243 678 10000 12600 16600
2021-01-04 22:45 11.53 1280 16600 (2016) 50 (2013) 4360 50 211 243 678 10000 12600 16600
2021-01-04 21:45 11.54 1290 16600 (2016) 50 (2013) 4360 50 211 243 678 10000 12600 16600
2021-01-04 20:45 11.56 1310 16600 (2016) 50 (2013) 4360 50 211 243 678 10000 12600 16600
2021-01-04 19:45 11.57 1310 16600 (2016) 50 (2013) 4360 50 211 243 678 10000 12600 16600
2021-01-04 18:45 11.58 1320 16600 (2016) 50 (2013) 4360 50 211 243 678 10000 12600 16600
2021-01-04 17:45 11.60 1340 16600 (2016) 50 (2013) 4360 50 211 243 678 10000 12600 16600
2021-01-04 16:45 11.59 1330 16600 (2016) 50 (2013) 4360 50 211 243 678 10000 12600 16600
2021-01-04 15:45 11.60 1340 16600 (2016) 50 (2013) 4360 50 211 243 678 10000 12600 16600
2021-01-04 14:45 11.65 1380 16600 (2016) 50 (2013) 4360 50 211 243 678 10000 12600 16600
2021-01-04 13:45 11.67 1390 16600 (2016) 50 (2013) 4360 50 211 243 678 10000 12600 16600
2021-01-04 12:45 11.69 1410 16600 (2016) 50 (2013) 4360 50 211 243 678 10000 12600 16600
2021-01-04 11:45 11.73 1440 16600 (2016) 50 (2013) 4360 50 211 243 678 10000 12600 16600
2021-01-04 10:45 11.80 1500 16600 (2016) 50 (2013) 4360 50 211 243 678 10000 12600 16600
2021-01-04 09:45 11.83 1520 16600 (2016) 50 (2013) 4360 50 211 243 678 10000 12600 16600
2021-01-04 08:45 11.87 1560 16600 (2016) 50 (2013) 4360 50 211 243 678 10000 12600 16600
2021-01-04 07:45 11.89 1580 16600 (2016) 50 (2013) 4360 50 211 243 678 10000 12600 16600
2021-01-04 06:45 11.93 1610 16600 (2016) 50 (2013) 4360 50 211 243 678 10000 12600 16600
2021-01-04 05:45 11.96 1640 16600 (2016) 50 (2013) 4360 50 211 243 678 10000 12600 16600
2021-01-04 04:45 11.99 1660 16600 (2016) 50 (2013) 4360 50 211 243 678 10000 12600 16600
2021-01-04 03:45 12.03 1700 16600 (2016) 50 (2013) 4360 50 211 243 678 10000 12600 16600
2021-01-04 02:45 12.06 1720 16600 (2016) 50 (2013) 4360 50 211 243 678 10000 12600 16600
2021-01-04 01:45 12.10 1750 16600 (2016) 50 (2013) 4360 50 211 243 678 10000 12600 16600
2021-01-04 00:45 12.14 1790 16600 (2016) 50 (2013) 4360 50 211 243 678 10000 12600 16600
2021-01-03 23:45 12.17 1810 19900 (2016) 50 (2013) 5700 50 285 324 688 14400 18400 19900
2021-01-03 22:45 12.20 1840 19900 (2016) 50 (2013) 5700 50 285 324 688 14400 18400 19900
2021-01-03 21:45 12.23 1860 19900 (2016) 50 (2013) 5700 50 285 324 688 14400 18400 19900
2021-01-03 20:45 12.24 1870 19900 (2016) 50 (2013) 5700 50 285 324 688 14400 18400 19900
2021-01-03 19:45 12.25 1880 19900 (2016) 50 (2013) 5700 50 285 324 688 14400 18400 19900
2021-01-03 18:45 12.31 1930 19900 (2016) 50 (2013) 5700 50 285 324 688 14400 18400 19900
2021-01-03 17:45 12.33 1950 19900 (2016) 50 (2013) 5700 50 285 324 688 14400 18400 19900
2021-01-03 16:45 12.36 1970 19900 (2016) 50 (2013) 5700 50 285 324 688 14400 18400 19900
2021-01-03 15:45 12.38 1990 19900 (2016) 50 (2013) 5700 50 285 324 688 14400 18400 19900
2021-01-03 14:45 12.40 2010 19900 (2016) 50 (2013) 5700 50 285 324 688 14400 18400 19900
2021-01-03 13:45 12.37 1980 19900 (2016) 50 (2013) 5700 50 285 324 688 14400 18400 19900
2021-01-03 12:45 12.39 2000 19900 (2016) 50 (2013) 5700 50 285 324 688 14400 18400 19900
2021-01-03 11:45 12.43 2040 19900 (2016) 50 (2013) 5700 50 285 324 688 14400 18400 19900
2021-01-03 10:45 12.44 2050 19900 (2016) 50 (2013) 5700 50 285 324 688 14400 18400 19900
2021-01-03 09:45 12.45 2050 19900 (2016) 50 (2013) 5700 50 285 324 688 14400 18400 19900
2021-01-03 08:45 12.44 2050 19900 (2016) 50 (2013) 5700 50 285 324 688 14400 18400 19900
2021-01-03 07:45 12.44 2050 19900 (2016) 50 (2013) 5700 50 285 324 688 14400 18400 19900
2021-01-03 06:45 12.42 2030 19900 (2016) 50 (2013) 5700 50 285 324 688 14400 18400 19900
2021-01-03 05:45 12.41 2020 19900 (2016) 50 (2013) 5700 50 285 324 688 14400 18400 19900
2021-01-03 04:45 12.39 2000 19900 (2016) 50 (2013) 5700 50 285 324 688 14400 18400 19900
2021-01-03 03:45 12.38 1990 19900 (2016) 50 (2013) 5700 50 285 324 688 14400 18400 19900
2021-01-03 02:45 12.35 1970 19900 (2016) 50 (2013) 5700 50 285 324 688 14400 18400 19900
2021-01-03 01:45 12.32 1940 19900 (2016) 50 (2013) 5700 50 285 324 688 14400 18400 19900
2021-01-03 00:45 12.28 1900 19900 (2016) 50 (2013) 5700 50 285 324 688 14400 18400 19900
2021-01-02 23:45 12.25 1880 23900 (2016) 50 (2013) 6610 50 308 343 670 16500 18200 23900
2021-01-02 22:45 12.21 1850 23900 (2016) 50 (2013) 6610 50 308 343 670 16500 18200 23900
2021-01-02 21:45 12.16 1800 23900 (2016) 50 (2013) 6610 50 308 343 670 16500 18200 23900
2021-01-02 20:45 12.11 1760 23900 (2016) 50 (2013) 6610 50 308 343 670 16500 18200 23900
2021-01-02 19:45 12.06 1720 23900 (2016) 50 (2013) 6610 50 308 343 670 16500 18200 23900
2021-01-02 18:45 12.00 1670 23900 (2016) 50 (2013) 6610 50 308 343 670 16500 18200 23900
2021-01-02 17:45 11.95 1630 23900 (2016) 50 (2013) 6610 50 308 343 670 16500 18200 23900
2021-01-02 16:45 11.88 1570 23900 (2016) 50 (2013) 6610 50 308 343 670 16500 18200 23900
2021-01-02 15:45 11.84 1530 23900 (2016) 50 (2013) 6610 50 308 343 670 16500 18200 23900
2021-01-02 14:45 11.78 1480 23900 (2016) 50 (2013) 6610 50 308 343 670 16500 18200 23900
2021-01-02 13:45 11.72 1430 23900 (2016) 50 (2013) 6610 50 308 343 670 16500 18200 23900
2021-01-02 12:45 11.67 1390 23900 (2016) 50 (2013) 6610 50 308 343 670 16500 18200 23900
2021-01-02 11:45 11.60 1340 23900 (2016) 50 (2013) 6610 50 308 343 670 16500 18200 23900
2021-01-02 10:45 11.54 1290 23900 (2016) 50 (2013) 6610 50 308 343 670 16500 18200 23900
2021-01-02 09:45 11.47 1240 23900 (2016) 50 (2013) 6610 50 308 343 670 16500 18200 23900
2021-01-02 08:45 11.41 1190 23900 (2016) 50 (2013) 6610 50 308 343 670 16500 18200 23900
2021-01-02 07:45 11.33 1130 23900 (2016) 50 (2013) 6610 50 308 343 670 16500 18200 23900
2021-01-02 06:45 11.25 1080 23900 (2016) 50 (2013) 6610 50 308 343 670 16500 18200 23900
2021-01-02 05:45 11.17 1020 23900 (2016) 50 (2013) 6610 50 308 343 670 16500 18200 23900
2021-01-02 04:45 11.08 965 23900 (2016) 50 (2013) 6610 50 308 343 670 16500 18200 23900
2021-01-02 03:45 11.00 914 23900 (2016) 50 (2013) 6610 50 308 343 670 16500 18200 23900
2021-01-02 02:45 10.92 865 23900 (2016) 50 (2013) 6610 50 308 343 670 16500 18200 23900
2021-01-02 01:45 10.83 813 23900 (2016) 50 (2013) 6610 50 308 343 670 16500 18200 23900
2021-01-02 00:45 10.75 768 23900 (2016) 50 (2013) 6610 50 308 343 670 16500 18200 23900
2021-01-01 23:45 10.68 730 27500 (2016) 50 (2013) 6710 50 320 377 626 15000 17500 27500
2021-01-01 22:45 10.60 688 27500 (2016) 50 (2013) 6710 50 320 377 626 15000 17500 27500
2021-01-01 21:45 10.50 638 27500 (2016) 50 (2013) 6710 50 320 377 626 15000 17500 27500
2021-01-01 20:45 10.47 623 27500 (2016) 50 (2013) 6710 50 320 377 626 15000 17500 27500
2021-01-01 19:45 10.38 581 27500 (2016) 50 (2013) 6710 50 320 377 626 15000 17500 27500
2021-01-01 18:45 10.28 539 27500 (2016) 50 (2013) 6710 50 320 377 626 15000 17500 27500
2021-01-01 17:45 10.18 500 27500 (2016) 50 (2013) 6710 50 320 377 626 15000 17500 27500
2021-01-01 16:45 10.07 459 27500 (2016) 50 (2013) 6710 50 320 377 626 15000 17500 27500
2021-01-01 15:45 9.93 410 27500 (2016) 50 (2013) 6710 50 320 377 626 15000 17500 27500
2021-01-01 14:45 9.85 383 27500 (2016) 50 (2013) 6710 50 320 377 626 15000 17500 27500
2021-01-01 13:45 9.76 354 27500 (2016) 50 (2013) 6710 50 320 377 626 15000 17500 27500
2021-01-01 12:45 9.69 333 27500 (2016) 50 (2013) 6710 50 320 377 626 15000 17500 27500
2021-01-01 11:45 9.68 330 27500 (2016) 50 (2013) 6710 50 320 377 626 15000 17500 27500
2021-01-01 10:45 9.64 318 27500 (2016) 50 (2013) 6710 50 320 377 626 15000 17500 27500
2021-01-01 08:45 9.63 316 27500 (2016) 50 (2013) 6710 50 320 377 626 15000 17500 27500
2021-01-01 07:45 9.57 299 27500 (2016) 50 (2013) 6710 50 320 377 626 15000 17500 27500
2021-01-01 05:45 9.53 288 27500 (2016) 50 (2013) 6710 50 320 377 626 15000 17500 27500
2021-01-01 04:45 9.49 277 27500 (2016) 50 (2013) 6710 50 320 377 626 15000 17500 27500
2021-01-01 03:45 9.40 254 27500 (2016) 50 (2013) 6710 50 320 377 626 15000 17500 27500
2021-01-01 02:45 9.37 246 27500 (2016) 50 (2013) 6710 50 320 377 626 15000 17500 27500
2021-01-01 01:45 9.35 241 27500 (2016) 50 (2013) 6710 50 320 377 626 15000 17500 27500
2021-01-01 00:45 9.36 244 27500 (2016) 50 (2013) 6710 50 320 377 626 15000 17500 27500
2020-12-31 23:45 9.33 236 29400 (2016) 50 (2013) 6480 50 336 421 663 12900 17600 29400
2020-12-31 22:45 9.33 236 29400 (2016) 50 (2013) 6480 50 336 421 663 12900 17600 29400
2020-12-31 21:45 9.32 234 29400 (2016) 50 (2013) 6480 50 336 421 663 12900 17600 29400
2020-12-31 20:45 9.28 225 29400 (2016) 50 (2013) 6480 50 336 421 663 12900 17600 29400
2020-12-31 19:45 9.25 218 29400 (2016) 50 (2013) 6480 50 336 421 663 12900 17600 29400
2020-12-31 18:45 9.24 216 29400 (2016) 50 (2013) 6480 50 336 421 663 12900 17600 29400
2020-12-31 17:45 9.25 218 29400 (2016) 50 (2013) 6480 50 336 421 663 12900 17600 29400
2020-12-31 16:45 9.26 220 29400 (2016) 50 (2013) 6480 50 336 421 663 12900 17600 29400
2020-12-31 15:45 9.27 222 29400 (2016) 50 (2013) 6480 50 336 421 663 12900 17600 29400
2020-12-31 14:45 9.27 222 29400 (2016) 50 (2013) 6480 50 336 421 663 12900 17600 29400
2020-12-31 13:45 9.24 216 29400 (2016) 50 (2013) 6480 50 336 421 663 12900 17600 29400
2020-12-31 12:45 9.21 209 29400 (2016) 50 (2013) 6480 50 336 421 663 12900 17600 29400
2020-12-31 11:45 9.22 211 29400 (2016) 50 (2013) 6480 50 336 421 663 12900 17600 29400
2020-12-31 10:45 9.19 205 29400 (2016) 50 (2013) 6480 50 336 421 663 12900 17600 29400
2020-12-31 09:45 9.21 209 29400 (2016) 50 (2013) 6480 50 336 421 663 12900 17600 29400
2020-12-31 08:45 9.21 209 29400 (2016) 50 (2013) 6480 50 336 421 663 12900 17600 29400
2020-12-31 07:45 9.20 207 29400 (2016) 50 (2013) 6480 50 336 421 663 12900 17600 29400
2020-12-31 06:45 9.21 209 29400 (2016) 50 (2013) 6480 50 336 421 663 12900 17600 29400
2020-12-31 05:45 9.21 209 29400 (2016) 50 (2013) 6480 50 336 421 663 12900 17600 29400
2020-12-31 04:45 9.20 207 29400 (2016) 50 (2013) 6480 50 336 421 663 12900 17600 29400
2020-12-31 03:45 9.20 207 29400 (2016) 50 (2013) 6480 50 336 421 663 12900 17600 29400
2020-12-31 02:45 9.19 205 29400 (2016) 50 (2013) 6480 50 336 421 663 12900 17600 29400
2020-12-31 01:45 9.16 199 29400 (2016) 50 (2013) 6480 50 336 421 663 12900 17600 29400
2020-12-31 00:45 9.16 199 29400 (2016) 50 (2013) 6480 50 336 421 663 12900 17600 29400
2020-12-30 23:45 9.19 205 25100 (2016) 50 (2013) 6300 50 453 496 741 14100 14800 25100
2020-12-30 22:45 9.21 209 25100 (2016) 50 (2013) 6300 50 453 496 741 14100 14800 25100
2020-12-30 21:45 9.24 216 25100 (2016) 50 (2013) 6300 50 453 496 741 14100 14800 25100
2020-12-30 20:45 9.24 216 25100 (2016) 50 (2013) 6300 50 453 496 741 14100 14800 25100
2020-12-30 19:45 9.21 209 25100 (2016) 50 (2013) 6300 50 453 496 741 14100 14800 25100
2020-12-30 18:45 9.20 207 25100 (2016) 50 (2013) 6300 50 453 496 741 14100 14800 25100
2020-12-30 17:45 9.17 201 25100 (2016) 50 (2013) 6300 50 453 496 741 14100 14800 25100
2020-12-30 16:45 9.13 193 25100 (2016) 50 (2013) 6300 50 453 496 741 14100 14800 25100
2020-12-30 15:45 9.10 188 25100 (2016) 50 (2013) 6300 50 453 496 741 14100 14800 25100
2020-12-30 14:45 9.08 184 25100 (2016) 50 (2013) 6300 50 453 496 741 14100 14800 25100
2020-12-30 13:45 9.10 188 25100 (2016) 50 (2013) 6300 50 453 496 741 14100 14800 25100
2020-12-30 12:45 9.12 192 25100 (2016) 50 (2013) 6300 50 453 496 741 14100 14800 25100
2020-12-30 11:45 9.16 199 25100 (2016) 50 (2013) 6300 50 453 496 741 14100 14800 25100
2020-12-30 10:45 9.18 203 25100 (2016) 50 (2013) 6300 50 453 496 741 14100 14800 25100
2020-12-30 09:45 9.24 216 25100 (2016) 50 (2013) 6300 50 453 496 741 14100 14800 25100
2020-12-30 08:45 9.23 214 25100 (2016) 50 (2013) 6300 50 453 496 741 14100 14800 25100
2020-12-30 07:45 9.25 218 25100 (2016) 50 (2013) 6300 50 453 496 741 14100 14800 25100
2020-12-30 06:45 9.27 222 25100 (2016) 50 (2013) 6300 50 453 496 741 14100 14800 25100
2020-12-30 05:45 9.22 211 25100 (2016) 50 (2013) 6300 50 453 496 741 14100 14800 25100
2020-12-30 04:45 9.19 205 25100 (2016) 50 (2013) 6300 50 453 496 741 14100 14800 25100
2020-12-30 03:45 9.07 182 25100 (2016) 50 (2013) 6300 50 453 496 741 14100 14800 25100
2020-12-30 02:45 9.07 182 25100 (2016) 50 (2013) 6300 50 453 496 741 14100 14800 25100
2020-12-30 01:45 9.01 171 25100 (2016) 50 (2013) 6300 50 453 496 741 14100 14800 25100
2020-12-30 00:45 9.01 171 25100 (2016) 50 (2013) 6300 50 453 496 741 14100 14800 25100
2020-12-29 23:45 8.99 167 16800 (2016) 50 (2013) 4820 50 372 450 854 11500 13900 16800
2020-12-29 22:45 8.98 166 16800 (2016) 50 (2013) 4820 50 372 450 854 11500 13900 16800
2020-12-29 21:45 9.01 171 16800 (2016) 50 (2013) 4820 50 372 450 854 11500 13900 16800
2020-12-29 20:45 8.99 167 16800 (2016) 50 (2013) 4820 50 372 450 854 11500 13900 16800
2020-12-29 19:45 9.03 175 16800 (2016) 50 (2013) 4820 50 372 450 854 11500 13900 16800
2020-12-29 18:45 9.03 175 16800 (2016) 50 (2013) 4820 50 372 450 854 11500 13900 16800
2020-12-29 17:45 9.08 184 16800 (2016) 50 (2013) 4820 50 372 450 854 11500 13900 16800
2020-12-29 16:45 9.13 193 16800 (2016) 50 (2013) 4820 50 372 450 854 11500 13900 16800
2020-12-29 15:45 9.14 195 16800 (2016) 50 (2013) 4820 50 372 450 854 11500 13900 16800
2020-12-29 14:45 9.13 193 16800 (2016) 50 (2013) 4820 50 372 450 854 11500 13900 16800
2020-12-29 13:45 9.11 190 16800 (2016) 50 (2013) 4820 50 372 450 854 11500 13900 16800
2020-12-29 12:45 9.10 188 16800 (2016) 50 (2013) 4820 50 372 450 854 11500 13900 16800
2020-12-29 11:45 9.14 195 16800 (2016) 50 (2013) 4820 50 372 450 854 11500 13900 16800
2020-12-29 10:45 9.15 197 16800 (2016) 50 (2013) 4820 50 372 450 854 11500 13900 16800
2020-12-29 09:45 9.16 199 16800 (2016) 50 (2013) 4820 50 372 450 854 11500 13900 16800
2020-12-29 08:45 9.20 207 16800 (2016) 50 (2013) 4820 50 372 450 854 11500 13900 16800
2020-12-29 07:45 9.25 218 16800 (2016) 50 (2013) 4820 50 372 450 854 11500 13900 16800
2020-12-29 06:45 9.24 216 16800 (2016) 50 (2013) 4820 50 372 450 854 11500 13900 16800
2020-12-29 05:45 9.24 216 16800 (2016) 50 (2013) 4820 50 372 450 854 11500 13900 16800
2020-12-29 04:45 9.24 216 16800 (2016) 50 (2013) 4820 50 372 450 854 11500 13900 16800
2020-12-29 03:45 9.15 197 16800 (2016) 50 (2013) 4820 50 372 450 854 11500 13900 16800
2020-12-29 02:45 9.13 193 16800 (2016) 50 (2013) 4820 50 372 450 854 11500 13900 16800
2020-12-29 01:45 9.13 193 16800 (2016) 50 (2013) 4820 50 372 450 854 11500 13900 16800
2020-12-29 00:45 9.10 188 16800 (2016) 50 (2013) 4820 50 372 450 854 11500 13900 16800
2020-12-28 23:45 9.09 186 12600 (2016) 50 (2013) 2710 50 331 452 1050 3990 6030 12600
2020-12-28 22:45 9.08 184 12600 (2016) 50 (2013) 2710 50 331 452 1050 3990 6030 12600
2020-12-28 21:45 9.11 190 12600 (2016) 50 (2013) 2710 50 331 452 1050 3990 6030 12600
2020-12-28 20:45 9.14 195 12600 (2016) 50 (2013) 2710 50 331 452 1050 3990 6030 12600
2020-12-28 19:45 9.18 203 12600 (2016) 50 (2013) 2710 50 331 452 1050 3990 6030 12600
2020-12-28 18:45 9.21 209 12600 (2016) 50 (2013) 2710 50 331 452 1050 3990 6030 12600
2020-12-28 17:45 9.20 207 12600 (2016) 50 (2013) 2710 50 331 452 1050 3990 6030 12600
2020-12-28 16:45 9.16 199 12600 (2016) 50 (2013) 2710 50 331 452 1050 3990 6030 12600
2020-12-28 15:45 9.11 190 12600 (2016) 50 (2013) 2710 50 331 452 1050 3990 6030 12600
2020-12-28 14:45 9.09 186 12600 (2016) 50 (2013) 2710 50 331 452 1050 3990 6030 12600
2020-12-28 13:45 9.05 178 12600 (2016) 50 (2013) 2710 50 331 452 1050 3990 6030 12600
2020-12-28 12:45 9.11 190 12600 (2016) 50 (2013) 2710 50 331 452 1050 3990 6030 12600
2020-12-28 11:45 9.14 195 12600 (2016) 50 (2013) 2710 50 331 452 1050 3990 6030 12600
2020-12-28 10:45 9.15 197 12600 (2016) 50 (2013) 2710 50 331 452 1050 3990 6030 12600
2020-12-28 09:45 9.15 197 12600 (2016) 50 (2013) 2710 50 331 452 1050 3990 6030 12600
2020-12-28 08:45 9.16 199 12600 (2016) 50 (2013) 2710 50 331 452 1050 3990 6030 12600
2020-12-28 07:45 9.16 199 12600 (2016) 50 (2013) 2710 50 331 452 1050 3990 6030 12600
2020-12-28 06:45 9.15 197 12600 (2016) 50 (2013) 2710 50 331 452 1050 3990 6030 12600
2020-12-28 05:45 9.13 193 12600 (2016) 50 (2013) 2710 50 331 452 1050 3990 6030 12600
2020-12-28 04:45 9.14 195 12600 (2016) 50 (2013) 2710 50 331 452 1050 3990 6030 12600
2020-12-28 03:45 9.14 195 12600 (2016) 50 (2013) 2710 50 331 452 1050 3990 6030 12600
2020-12-28 02:45 9.14 195 12600 (2016) 50 (2013) 2710 50 331 452 1050 3990 6030 12600
2020-12-28 01:45 9.18 203 12600 (2016) 50 (2013) 2710 50 331 452 1050 3990 6030 12600
2020-12-28 00:45 9.19 205 12600 (2016) 50 (2013) 2710 50 331 452 1050 3990 6030 12600
2020-12-27 23:45 9.24 216 10600 (2016) 50 (2013) 1980 50 335 466 1030 1620 1850 10600
2020-12-27 22:45 9.27 222 10600 (2016) 50 (2013) 1980 50 335 466 1030 1620 1850 10600
2020-12-27 21:45 9.25 218 10600 (2016) 50 (2013) 1980 50 335 466 1030 1620 1850 10600
2020-12-27 20:45 9.22 211 10600 (2016) 50 (2013) 1980 50 335 466 1030 1620 1850 10600
2020-12-27 19:45 9.14 195 10600 (2016) 50 (2013) 1980 50 335 466 1030 1620 1850 10600
2020-12-27 18:45 9.04 176 10600 (2016) 50 (2013) 1980 50 335 466 1030 1620 1850 10600
2020-12-27 17:45 8.94 159 10600 (2016) 50 (2013) 1980 50 335 466 1030 1620 1850 10600
2020-12-27 16:45 8.85 144 10600 (2016) 50 (2013) 1980 50 335 466 1030 1620 1850 10600
2020-12-27 15:45 8.87 147 10600 (2016) 50 (2013) 1980 50 335 466 1030 1620 1850 10600
2020-12-27 14:45 8.90 152 10600 (2016) 50 (2013) 1980 50 335 466 1030 1620 1850 10600
2020-12-27 13:45 8.98 166 10600 (2016) 50 (2013) 1980 50 335 466 1030 1620 1850 10600
2020-12-27 12:45 9.02 173 10600 (2016) 50 (2013) 1980 50 335 466 1030 1620 1850 10600
2020-12-27 11:45 9.07 182 10600 (2016) 50 (2013) 1980 50 335 466 1030 1620 1850 10600
2020-12-27 10:45 9.09 186 10600 (2016) 50 (2013) 1980 50 335 466 1030 1620 1850 10600
2020-12-27 09:45 9.15 197 10600 (2016) 50 (2013) 1980 50 335 466 1030 1620 1850 10600
2020-12-27 08:45 9.18 203 10600 (2016) 50 (2013) 1980 50 335 466 1030 1620 1850 10600
2020-12-27 07:45 9.16 199 10600 (2016) 50 (2013) 1980 50 335 466 1030 1620 1850 10600
2020-12-27 06:45 9.14 195 10600 (2016) 50 (2013) 1980 50 335 466 1030 1620 1850 10600
2020-12-27 05:45 9.11 190 10600 (2016) 50 (2013) 1980 50 335 466 1030 1620 1850 10600
2020-12-27 04:45 9.06 180 10600 (2016) 50 (2013) 1980 50 335 466 1030 1620 1850 10600
2020-12-27 03:45 9.08 184 10600 (2016) 50 (2013) 1980 50 335 466 1030 1620 1850 10600
2020-12-27 02:45 9.09 186 10600 (2016) 50 (2013) 1980 50 335 466 1030 1620 1850 10600
2020-12-27 01:45 9.11 190 10600 (2016) 50 (2013) 1980 50 335 466 1030 1620 1850 10600
2020-12-27 00:45 9.12 192 10600 (2016) 50 (2013) 1980 50 335 466 1030 1620 1850 10600
2020-12-26 23:45 9.13 193 3650 (2016) 50 (2013) 1220 50 294 383 649 1800 1890 3650
2020-12-26 22:45 9.14 195 3650 (2016) 50 (2013) 1220 50 294 383 649 1800 1890 3650
2020-12-26 21:45 9.17 201 3650 (2016) 50 (2013) 1220 50 294 383 649 1800 1890 3650
2020-12-26 20:45 9.19 205 3650 (2016) 50 (2013) 1220 50 294 383 649 1800 1890 3650
2020-12-26 19:45 9.19 205 3650 (2016) 50 (2013) 1220 50 294 383 649 1800 1890 3650
2020-12-26 18:45 9.18 203 3650 (2016) 50 (2013) 1220 50 294 383 649 1800 1890 3650
2020-12-26 17:45 9.12 192 3650 (2016) 50 (2013) 1220 50 294 383 649 1800 1890 3650
2020-12-26 16:45 9.07 182 3650 (2016) 50 (2013) 1220 50 294 383 649 1800 1890 3650
2020-12-26 15:45 9.02 173 3650 (2016) 50 (2013) 1220 50 294 383 649 1800 1890 3650
2020-12-26 14:45 8.98 166 3650 (2016) 50 (2013) 1220 50 294 383 649 1800 1890 3650
2020-12-26 13:45 9.02 173 3650 (2016) 50 (2013) 1220 50 294 383 649 1800 1890 3650
2020-12-26 12:45 9.07 182 3650 (2016) 50 (2013) 1220 50 294 383 649 1800 1890 3650
2020-12-26 11:45 9.13 193 3650 (2016) 50 (2013) 1220 50 294 383 649 1800 1890 3650
2020-12-26 10:45 9.17 201 3650 (2016) 50 (2013) 1220 50 294 383 649 1800 1890 3650
2020-12-26 09:45 9.18 203 3650 (2016) 50 (2013) 1220 50 294 383 649 1800 1890 3650
2020-12-26 08:45 9.19 205 3650 (2016) 50 (2013) 1220 50 294 383 649 1800 1890 3650
2020-12-26 07:45 9.19 205 3650 (2016) 50 (2013) 1220 50 294 383 649 1800 1890 3650
2020-12-26 06:45 9.16 199 3650 (2016) 50 (2013) 1220 50 294 383 649 1800 1890 3650
2020-12-26 05:45 9.12 192 3650 (2016) 50 (2013) 1220 50 294 383 649 1800 1890 3650
2020-12-26 04:45 9.11 190 3650 (2016) 50 (2013) 1220 50 294 383 649 1800 1890 3650
2020-12-26 03:45 9.08 184 3650 (2016) 50 (2013) 1220 50 294 383 649 1800 1890 3650
2020-12-26 02:45 9.09 186 3650 (2016) 50 (2013) 1220 50 294 383 649 1800 1890 3650
2020-12-26 01:45 9.10 188 3650 (2016) 50 (2013) 1220 50 294 383 649 1800 1890 3650
2020-12-26 00:45 9.11 190 3650 (2016) 50 (2013) 1220 50 294 383 649 1800 1890 3650
2020-12-25 23:45 9.13 193 3870 (2016) 50 (2013) 1410 50 342 436 718 2340 2660 3870
2020-12-25 22:45 9.13 193 3870 (2016) 50 (2013) 1410 50 342 436 718 2340 2660 3870
2020-12-25 21:45 9.15 197 3870 (2016) 50 (2013) 1410 50 342 436 718 2340 2660 3870
2020-12-25 20:45 9.16 199 3870 (2016) 50 (2013) 1410 50 342 436 718 2340 2660 3870
2020-12-25 19:45 9.16 199 3870 (2016) 50 (2013) 1410 50 342 436 718 2340 2660 3870
2020-12-25 18:45 9.15 197 3870 (2016) 50 (2013) 1410 50 342 436 718 2340 2660 3870
2020-12-25 17:45 9.13 193 3870 (2016) 50 (2013) 1410 50 342 436 718 2340 2660 3870
2020-12-25 16:45 9.08 184 3870 (2016) 50 (2013) 1410 50 342 436 718 2340 2660 3870
2020-12-25 15:45 9.04 176 3870 (2016) 50 (2013) 1410 50 342 436 718 2340 2660 3870
2020-12-25 14:45 9.01 171 3870 (2016) 50 (2013) 1410 50 342 436 718 2340 2660 3870
2020-12-25 13:45 9.03 175 3870 (2016) 50 (2013) 1410 50 342 436 718 2340 2660 3870
2020-12-25 12:45 9.07 182 3870 (2016) 50 (2013) 1410 50 342 436 718 2340 2660 3870
2020-12-25 11:45 9.08 184 3870 (2016) 50 (2013) 1410 50 342 436 718 2340 2660 3870
2020-12-25 10:45 9.09 186 3870 (2016) 50 (2013) 1410 50 342 436 718 2340 2660 3870
2020-12-25 09:45 9.10 188 3870 (2016) 50 (2013) 1410 50 342 436 718 2340 2660 3870
2020-12-25 08:45 9.11 190 3870 (2016) 50 (2013) 1410 50 342 436 718 2340 2660 3870
2020-12-25 07:45 9.12 192 3870 (2016) 50 (2013) 1410 50 342 436 718 2340 2660 3870
2020-12-25 06:45 9.14 195 3870 (2016) 50 (2013) 1410 50 342 436 718 2340 2660 3870
2020-12-25 05:45 9.13 193 3870 (2016) 50 (2013) 1410 50 342 436 718 2340 2660 3870
2020-12-25 04:45 9.18 203 3870 (2016) 50 (2013) 1410 50 342 436 718 2340 2660 3870
2020-12-25 03:45 9.18 203 3870 (2016) 50 (2013) 1410 50 342 436 718 2340 2660 3870
2020-12-25 02:45 9.21 209 3870 (2016) 50 (2013) 1410 50 342 436 718 2340 2660 3870
2020-12-25 01:45 9.22 211 3870 (2016) 50 (2013) 1410 50 342 436 718 2340 2660 3870
2020-12-25 00:45 9.22 211 3870 (2016) 50 (2013) 1410 50 342 436 718 2340 2660 3870
2020-12-24 23:45 9.20 207 5640 (2012) 50 (2013) 1810 50 312 478 747 3180 4240 5640
2020-12-24 22:45 9.17 201 5640 (2012) 50 (2013) 1810 50 312 478 747 3180 4240 5640
2020-12-24 21:45 9.14 195 5640 (2012) 50 (2013) 1810 50 312 478 747 3180 4240 5640
2020-12-24 20:45 9.13 193 5640 (2012) 50 (2013) 1810 50 312 478 747 3180 4240 5640
2020-12-24 19:45 9.16 199 5640 (2012) 50 (2013) 1810 50 312 478 747 3180 4240 5640
2020-12-24 18:45 9.14 195 5640 (2012) 50 (2013) 1810 50 312 478 747 3180 4240 5640
2020-12-24 17:45 9.15 197 5640 (2012) 50 (2013) 1810 50 312 478 747 3180 4240 5640
2020-12-24 16:45 9.13 193 5640 (2012) 50 (2013) 1810 50 312 478 747 3180 4240 5640
2020-12-24 15:45 9.12 192 5640 (2012) 50 (2013) 1810 50 312 478 747 3180 4240 5640
2020-12-24 14:45 9.11 190 5640 (2012) 50 (2013) 1810 50 312 478 747 3180 4240 5640
2020-12-24 13:45 9.13 193 5640 (2012) 50 (2013) 1810 50 312 478 747 3180 4240 5640
2020-12-24 12:45 9.12 192 5640 (2012) 50 (2013) 1810 50 312 478 747 3180 4240 5640
2020-12-24 11:45 9.10 188 5640 (2012) 50 (2013) 1810 50 312 478 747 3180 4240 5640
2020-12-24 10:45 9.10 188 5640 (2012) 50 (2013) 1810 50 312 478 747 3180 4240 5640
2020-12-24 09:45 9.06 180 5640 (2012) 50 (2013) 1810 50 312 478 747 3180 4240 5640
2020-12-24 08:45 9.01 171 5640 (2012) 50 (2013) 1810 50 312 478 747 3180 4240 5640
2020-12-24 07:45 9.02 173 5640 (2012) 50 (2013) 1810 50 312 478 747 3180 4240 5640
2020-12-24 06:45 9.05 178 5640 (2012) 50 (2013) 1810 50 312 478 747 3180 4240 5640
2020-12-24 05:45 9.07 182 5640 (2012) 50 (2013) 1810 50 312 478 747 3180 4240 5640
2020-12-24 04:45 9.12 192 5640 (2012) 50 (2013) 1810 50 312 478 747 3180 4240 5640
2020-12-24 03:45 9.14 195 5640 (2012) 50 (2013) 1810 50 312 478 747 3180 4240 5640
2020-12-24 02:45 9.17 201 5640 (2012) 50 (2013) 1810 50 312 478 747 3180 4240 5640
2020-12-24 01:45 9.16 199 5640 (2012) 50 (2013) 1810 50 312 478 747 3180 4240 5640
2020-12-24 00:45 9.11 190 5640 (2012) 50 (2013) 1810 50 312 478 747 3180 4240 5640

A total of 748 rows are displayed for years 2012 through 2020.